Time;durP1;ratioP1;P1;durP2;ratioP2;P2;SDS_P1;SDS_P2;PMS_P1;PMS_P2;Temp;Humidity;BMP_temperature;BMP_pressure;BME280_temperature;BME280_humidity;BME280_pressure;Samples;Min_cycle;Max_cycle;Signal;HPM_P1;HPM_P2
2023/05/17 00:00:49;;;;;;;12.02;8.43;;;;;;;14.59;88.36;98860.00;5067123;28;20024;-73
2023/05/17 00:03:14;;;;;;;14.35;7.82;;;;;;;14.57;89.69;98870.81;5053136;28;20013;-73
2023/05/17 00:05:40;;;;;;;11.52;8.05;;;;;;;14.59;88.95;98878.88;5054507;28;20024;-73
2023/05/17 00:08:05;;;;;;;17.38;8.73;;;;;;;14.55;88.72;98867.56;5061201;28;20028;-73
2023/05/17 00:10:31;;;;;;;13.32;8.43;;;;;;;14.46;89.54;98887.50;5072902;28;20410;-73
2023/05/17 00:12:56;;;;;;;12.60;8.15;;;;;;;14.51;90.03;98902.47;5072656;28;20178;-73
2023/05/17 00:15:22;;;;;;;13.45;7.75;;;;;;;14.39;90.16;98904.28;5071446;28;20083;-73
2023/05/17 00:17:47;;;;;;;11.07;7.25;;;;;;;14.14;90.98;98903.81;5068597;28;20103;-72
2023/05/17 00:20:13;;;;;;;11.32;6.65;;;;;;;13.98;91.80;98892.66;5067557;28;20027;-72
2023/05/17 00:22:39;;;;;;;17.60;9.10;;;;;;;13.69;92.64;98886.50;5070902;28;20024;-72
2023/05/17 00:25:05;;;;;;;13.52;7.43;;;;;;;13.57;94.43;98884.63;5071704;28;20121;-73
2023/05/17 00:27:31;;;;;;;12.18;8.57;;;;;;;13.42;97.14;98889.13;5070062;28;20038;-71
2023/05/17 00:29:56;;;;;;;12.93;7.32;;;;;;;13.37;97.08;98876.19;5072998;28;20032;-73
2023/05/17 00:32:22;;;;;;;7.57;5.55;;;;;;;13.22;93.07;98893.91;5072412;28;20117;-73
2023/05/17 00:34:47;;;;;;;7.93;6.05;;;;;;;13.09;93.40;98899.63;5070746;28;20028;-72
2023/05/17 00:37:13;;;;;;;10.10;5.40;;;;;;;13.18;94.31;98891.03;5072544;28;20033;-73
2023/05/17 00:39:38;;;;;;;16.85;5.97;;;;;;;13.07;93.77;98896.38;5073488;28;20387;-73
2023/05/17 00:42:04;;;;;;;11.13;5.20;;;;;;;13.11;94.00;98882.44;5073793;28;20407;-73
2023/05/17 00:44:30;;;;;;;9.98;5.10;;;;;;;13.02;95.08;98889.03;5073413;28;20045;-73
2023/05/17 00:46:58;;;;;;;8.18;5.13;;;;;;;12.87;94.69;98901.13;5056938;28;20071;-73
2023/05/17 00:49:24;;;;;;;9.45;5.95;;;;;;;12.89;95.35;98896.78;5061700;28;20028;-73
2023/05/17 00:51:50;;;;;;;6.25;4.68;;;;;;;12.89;95.34;98901.56;5073640;28;20052;-73
2023/05/17 00:54:16;;;;;;;12.88;5.70;;;;;;;12.97;94.74;98891.31;5070086;28;20452;-73
2023/05/17 00:56:41;;;;;;;10.18;5.63;;;;;;;13.03;95.26;98878.66;5073366;28;20024;-73
2023/05/17 00:59:07;;;;;;;10.25;6.45;;;;;;;12.98;96.79;98871.31;5070690;28;20028;-73
2023/05/17 01:01:36;;;;;;;10.85;5.35;;;;;;;13.04;96.84;98885.88;5071741;28;20415;-73
2023/05/17 01:04:02;;;;;;;10.57;5.82;;;;;;;13.25;96.44;98888.34;5070240;28;20025;-72
2023/05/17 01:06:27;;;;;;;15.02;5.88;;;;;;;13.40;95.78;98872.63;5069603;28;20035;-72
2023/05/17 01:08:53;;;;;;;12.38;5.63;;;;;;;13.10;97.21;98873.19;5063339;28;20461;-72
2023/05/17 01:11:37;;;;;;;13.48;5.72;;;;;;;12.95;98.70;98880.47;5071835;28;20037;-73
2023/05/17 01:14:41;;;;;;;10.98;6.35;;;;;;;13.16;97.89;98873.72;5073081;28;20090;-73
2023/05/17 01:17:16;;;;;;;12.95;6.22;;;;;;;12.98;98.69;98864.91;5049896;28;20049;-72
2023/05/17 01:20:05;;;;;;;11.65;5.47;;;;;;;12.98;99.83;98856.47;5069052;28;20111;-72
2023/05/17 01:22:35;;;;;;;10.07;6.20;;;;;;;12.96;100.00;98865.25;5072999;28;20024;-72
2023/05/17 01:25:28;;;;;;;9.15;5.97;;;;;;;12.82;100.00;98850.91;5068991;28;20035;-72
2023/05/17 01:27:58;;;;;;;13.50;7.35;;;;;;;12.90;100.00;98869.53;5070151;28;20135;-72
2023/05/17 01:30:25;;;;;;;13.18;6.88;;;;;;;12.94;100.00;98870.44;5072639;28;20028;-72
2023/05/17 01:32:55;;;;;;;10.82;6.72;;;;;;;12.87;100.00;98876.69;5072880;28;20483;-73
2023/05/17 01:35:20;;;;;;;11.73;7.20;;;;;;;12.88;100.00;98889.53;5063220;28;20027;-73
2023/05/17 01:37:46;;;;;;;13.38;6.80;;;;;;;12.82;100.00;98881.78;5069491;28;20032;-72
2023/05/17 01:40:12;;;;;;;10.80;5.95;;;;;;;12.90;100.00;98880.75;5070886;28;20024;-73
2023/05/17 01:42:41;;;;;;;12.40;6.40;;;;;;;12.66;100.00;98871.38;5070302;28;20028;-73
2023/05/17 01:45:25;;;;;;;17.35;6.95;;;;;;;12.76;100.00;98870.00;5069661;28;20044;-73
2023/05/17 01:48:05;;;;;;;10.20;5.88;;;;;;;12.70;100.00;98871.47;5067524;28;20016;-73
2023/05/17 01:50:33;;;;;;;10.50;6.53;;;;;;;12.76;100.00;98865.19;5052314;28;20047;-73
2023/05/17 01:53:05;;;;;;;14.57;6.68;;;;;;;12.89;100.00;98865.91;5051022;28;20021;-73
2023/05/17 01:55:44;;;;;;;15.77;6.40;;;;;;;13.00;100.00;98871.75;5067924;28;20506;-73
2023/05/17 01:58:11;;;;;;;15.83;6.73;;;;;;;12.99;100.00;98867.31;5070938;28;20044;-73
2023/05/17 02:00:40;;;;;;;13.68;6.93;;;;;;;13.00;100.00;98857.72;5069642;28;20032;-73
2023/05/17 02:03:06;;;;;;;11.85;6.07;;;;;;;13.06;99.87;98859.09;5068372;28;20021;-72
2023/05/17 02:05:31;;;;;;;9.60;6.68;;;;;;;13.18;98.49;98858.13;5058126;28;20055;-73
2023/05/17 02:07:56;;;;;;;10.60;6.15;;;;;;;13.33;98.05;98861.22;5072014;28;20024;-73
2023/05/17 02:10:22;;;;;;;11.48;6.80;;;;;;;13.28;97.42;98856.75;5072180;28;20024;-72
2023/05/17 02:12:47;;;;;;;10.60;6.55;;;;;;;13.36;97.44;98871.75;5071918;28;20021;-73
2023/05/17 02:15:15;;;;;;;10.82;6.43;;;;;;;13.37;96.83;98872.56;5070696;28;20105;-73
2023/05/17 02:17:40;;;;;;;9.95;6.95;;;;;;;13.30;96.53;98876.84;5068240;28;20478;-73
2023/05/17 02:20:07;;;;;;;15.85;7.15;;;;;;;13.40;96.51;98883.88;5071670;28;20036;-73
2023/05/17 02:22:33;;;;;;;15.10;7.07;;;;;;;13.41;96.43;98876.28;5071691;28;20036;-73
2023/05/17 02:24:58;;;;;;;28.45;7.55;;;;;;;12.56;99.32;98871.94;5069260;28;20498;-73
2023/05/17 02:27:24;;;;;;;14.45;7.80;;;;;;;12.38;100.00;98886.31;5071626;28;20081;-73
2023/05/17 02:29:49;;;;;;;17.02;9.27;;;;;;;12.63;100.00;98886.13;5071636;28;20028;-73
2023/05/17 02:32:14;;;;;;;11.55;7.93;;;;;;;12.80;99.47;98898.16;5068076;28;20028;-73
2023/05/17 02:34:40;;;;;;;13.30;7.10;;;;;;;12.55;99.55;98892.72;5056291;28;20055;-73
2023/05/17 02:37:05;;;;;;;14.15;8.05;;;;;;;12.55;100.00;98896.38;5051497;28;20051;-73
2023/05/17 02:39:32;;;;;;;15.43;7.55;;;;;;;12.60;99.56;98892.47;5051566;28;20051;-73
2023/05/17 02:41:58;;;;;;;13.02;7.35;;;;;;;12.72;99.15;98892.38;5051430;28;20487;-73
2023/05/17 02:44:23;;;;;;;11.25;7.75;;;;;;;12.71;98.91;98896.34;5051315;28;20052;-73
2023/05/17 02:46:48;;;;;;;12.75;8.48;;;;;;;12.44;100.00;98898.09;5065323;28;20033;-73
2023/05/17 02:49:14;;;;;;;14.13;9.38;;;;;;;12.44;100.00;98889.66;5069553;28;20055;-73
2023/05/17 02:51:39;;;;;;;14.90;8.52;;;;;;;12.47;100.00;98889.75;5061548;28;20029;-73
2023/05/17 02:54:05;;;;;;;13.75;6.90;;;;;;;12.61;100.00;98889.31;5055648;28;20086;-73
2023/05/17 02:56:31;;;;;;;12.23;7.53;;;;;;;12.71;98.92;98887.94;5070020;28;20077;-73
2023/05/17 02:59:00;;;;;;;10.57;8.07;;;;;;;12.64;99.10;98873.72;5067432;28;20064;-73
2023/05/17 03:01:26;;;;;;;10.80;7.00;;;;;;;12.68;99.05;98862.59;5072716;28;20452;-73
2023/05/17 03:03:51;;;;;;;10.32;7.45;;;;;;;12.67;99.60;98867.41;5064099;28;20021;-73
2023/05/17 03:06:17;;;;;;;12.05;7.10;;;;;;;12.81;98.70;98871.72;5063833;28;20154;-72
2023/05/17 03:08:42;;;;;;;16.13;8.27;;;;;;;12.84;98.08;98871.00;5054143;28;20024;-73
2023/05/17 03:11:08;;;;;;;14.23;7.65;;;;;;;12.94;97.86;98880.84;5054292;28;20036;-72
2023/05/17 03:13:33;;;;;;;17.48;7.93;;;;;;;12.80;98.12;98898.16;5071052;28;20035;-73
2023/05/17 03:15:59;;;;;;;11.10;7.00;;;;;;;12.91;98.03;98904.81;5071210;28;20024;-73
2023/05/17 03:18:25;;;;;;;14.75;7.95;;;;;;;12.90;97.68;98890.00;5070988;28;20039;-73
2023/05/17 03:20:50;;;;;;;10.85;7.57;;;;;;;12.98;97.59;98895.78;5069824;28;20077;-72
2023/05/17 03:23:16;;;;;;;14.23;8.00;;;;;;;13.04;97.39;98888.69;5070334;28;20028;-73
2023/05/17 03:25:41;;;;;;;11.98;7.47;;;;;;;13.06;97.38;98894.75;5065523;28;20024;-73
2023/05/17 03:28:06;;;;;;;15.82;7.82;;;;;;;12.97;97.41;98899.75;5068358;28;20457;-73
2023/05/17 03:30:32;;;;;;;12.50;7.32;;;;;;;12.97;96.88;98903.38;5071151;28;20029;-73
2023/05/17 03:32:57;;;;;;;16.33;10.27;;;;;;;12.81;97.34;98919.44;5069461;28;20028;-73
2023/05/17 03:35:23;;;;;;;25.52;10.40;;;;;;;12.84;97.57;98921.50;5070767;28;20062;-73
2023/05/17 03:37:48;;;;;;;13.85;10.75;;;;;;;12.90;97.31;98925.66;5069637;28;20036;-73
2023/05/17 03:40:14;;;;;;;14.90;10.45;;;;;;;12.90;97.34;98928.47;5067051;28;20017;-73
2023/05/17 03:42:40;;;;;;;15.05;10.60;;;;;;;12.92;97.16;98929.72;5069503;28;20475;-73
2023/05/17 03:45:06;;;;;;;14.20;7.85;;;;;;;12.95;97.82;98942.22;5070729;28;20048;-73
2023/05/17 03:47:31;;;;;;;16.38;10.02;;;;;;;12.94;97.25;98936.97;5070753;28;20575;-73
2023/05/17 03:49:57;;;;;;;22.02;9.63;;;;;;;12.95;96.42;98930.19;5069630;28;20028;-73
2023/05/17 03:52:22;;;;;;;18.67;8.93;;;;;;;12.90;96.54;98931.25;5066454;28;20492;-73
2023/05/17 03:54:48;;;;;;;17.52;9.70;;;;;;;12.88;96.93;98923.22;5064521;28;20028;-73
2023/05/17 03:57:13;;;;;;;15.27;10.57;;;;;;;12.64;97.42;98938.25;5070602;28;20028;-73
2023/05/17 03:59:38;;;;;;;12.88;8.48;;;;;;;12.40;98.56;98936.44;5072817;28;20024;-73
2023/05/17 04:02:04;;;;;;;13.43;8.95;;;;;;;12.42;99.59;98937.69;5073163;28;20154;-73
2023/05/17 04:04:29;;;;;;;16.95;10.90;;;;;;;12.52;99.51;98921.50;5072874;28;20025;-73
2023/05/17 04:06:55;;;;;;;19.80;10.80;;;;;;;12.59;99.18;98922.50;5067395;28;20052;-73
2023/05/17 04:09:20;;;;;;;20.60;10.15;;;;;;;12.52;99.12;98927.94;5057076;28;20044;-73
2023/05/17 04:11:46;;;;;;;15.45;9.98;;;;;;;12.38;100.00;98921.97;5063444;28;20017;-73
2023/05/17 04:14:11;;;;;;;15.00;10.13;;;;;;;12.47;100.00;98933.81;5087241;28;20024;-73
2023/05/17 04:16:37;;;;;;;17.70;10.13;;;;;;;12.25;100.00;98940.84;5073012;28;20020;-73
2023/05/17 04:19:02;;;;;;;16.67;10.55;;;;;;;12.42;100.00;98936.91;5073928;28;20059;-73
2023/05/17 04:21:28;;;;;;;21.92;10.65;;;;;;;12.49;100.00;98928.69;5070321;28;20425;-74
2023/05/17 04:23:53;;;;;;;29.63;11.02;;;;;;;12.49;100.00;98932.28;5072988;28;20016;-74
2023/05/17 04:26:19;;;;;;;19.30;10.73;;;;;;;12.43;100.00;98936.56;5052680;28;20040;-75
2023/05/17 04:28:44;;;;;;;15.25;9.35;;;;;;;12.49;100.00;98934.28;5053976;28;20396;-73
2023/05/17 04:31:18;;;;;;;15.65;9.85;;;;;;;12.62;100.00;98927.41;5052636;28;20075;-73
2023/05/17 04:33:43;;;;;;;19.60;9.32;;;;;;;12.57;100.00;98927.66;5053123;28;20102;-71
2023/05/17 04:36:09;;;;;;;14.43;8.85;;;;;;;12.58;100.00;98920.88;5066553;28;20491;-73
2023/05/17 04:38:34;;;;;;;18.33;10.48;;;;;;;12.75;100.00;98927.31;5065766;28;20428;-73
2023/05/17 04:41:02;;;;;;;16.98;10.57;;;;;;;12.84;100.00;98921.50;5070955;28;20115;-73
2023/05/17 04:43:29;;;;;;;16.27;9.88;;;;;;;12.97;100.00;98928.63;5061550;28;20873;-73
2023/05/17 04:45:58;;;;;;;12.68;8.93;;;;;;;12.78;100.00;98923.78;5054840;28;20039;-74
2023/05/17 04:48:26;;;;;;;13.77;9.13;;;;;;;12.94;100.00;98931.34;5062152;28;20032;-73
2023/05/17 04:50:52;;;;;;;12.75;9.05;;;;;;;12.92;100.00;98929.72;5060400;28;20439;-74
2023/05/17 04:53:18;;;;;;;13.20;9.20;;;;;;;13.03;100.00;98935.63;5057071;28;20043;-74
2023/05/17 04:55:43;;;;;;;25.50;10.38;;;;;;;13.10;100.00;98934.16;5052114;28;20025;-74
2023/05/17 04:58:09;;;;;;;15.02;10.18;;;;;;;13.31;100.00;98943.06;5066867;28;20028;-73
2023/05/17 05:00:35;;;;;;;16.60;9.90;;;;;;;13.43;100.00;98939.31;5068624;28;20460;-72
2023/05/17 05:03:00;;;;;;;15.85;9.93;;;;;;;13.19;100.00;98943.19;5064640;28;20033;-70
2023/05/17 05:05:26;;;;;;;19.25;9.73;;;;;;;13.15;100.00;98942.28;5066094;28;20028;-73
2023/05/17 05:07:51;;;;;;;15.23;9.82;;;;;;;13.05;100.00;98950.09;5066604;28;20025;-71
2023/05/17 05:10:17;;;;;;;15.05;9.90;;;;;;;13.17;100.00;98953.97;5063282;28;20035;-70
2023/05/17 05:12:43;;;;;;;20.90;11.38;;;;;;;13.34;100.00;98955.56;5062143;28;20106;-73
2023/05/17 05:15:09;;;;;;;15.25;10.43;;;;;;;13.57;100.00;98952.88;5070464;28;20060;-74
2023/05/17 05:17:35;;;;;;;19.00;10.93;;;;;;;13.80;100.00;98946.53;5065901;28;20032;-72
2023/05/17 05:20:00;;;;;;;22.58;13.23;;;;;;;13.81;97.74;98950.16;5065277;28;20034;-72
2023/05/17 05:22:26;;;;;;;18.75;9.95;;;;;;;14.05;97.75;98951.88;5066633;28;20029;-73
2023/05/17 05:24:52;;;;;;;22.52;11.32;;;;;;;14.16;97.25;98944.44;5067430;28;20025;-73
2023/05/17 05:27:17;;;;;;;27.58;12.52;;;;;;;14.44;96.32;98948.97;5070175;28;20081;-75
2023/05/17 05:29:42;;;;;;;15.82;11.18;;;;;;;14.60;93.92;98948.88;5068620;28;20031;-73
2023/05/17 05:32:08;;;;;;;17.50;10.80;;;;;;;14.39;94.13;98954.94;5069911;28;20085;-73
2023/05/17 05:34:33;;;;;;;17.88;10.75;;;;;;;14.51;94.71;98958.75;5066085;28;20024;-74
2023/05/17 05:36:59;;;;;;;35.22;12.43;;;;;;;14.84;92.78;98968.56;5068558;28;20114;-73
2023/05/17 05:39:26;;;;;;;16.02;11.90;;;;;;;14.98;91.81;98953.94;5067914;28;20116;-72
2023/05/17 05:41:52;;;;;;;21.35;11.95;;;;;;;15.13;91.10;98952.16;5068654;28;20028;-72
2023/05/17 05:44:18;;;;;;;21.52;12.35;;;;;;;14.93;90.57;98954.25;5066158;28;20043;-73
2023/05/17 05:46:43;;;;;;;15.98;10.60;;;;;;;14.73;89.93;98949.53;5066285;28;20032;-74
2023/05/17 05:49:09;;;;;;;18.15;11.65;;;;;;;15.03;90.28;98950.81;5068414;28;20493;-75
2023/05/17 05:51:34;;;;;;;19.92;12.88;;;;;;;15.07;90.43;98948.84;5066049;28;20025;-73
2023/05/17 05:53:59;;;;;;;24.73;11.00;;;;;;;14.81;90.36;98942.00;5063732;28;20541;-72
2023/05/17 05:56:26;;;;;;;16.75;11.10;;;;;;;15.07;91.41;98945.22;5064312;28;20028;-73
2023/05/17 05:58:54;;;;;;;19.80;10.85;;;;;;;15.08;92.28;98956.13;5066073;28;20039;-74
2023/05/17 06:01:20;;;;;;;22.20;10.65;;;;;;;15.21;94.40;98953.91;5054330;28;20029;-70
2023/05/17 06:03:45;;;;;;;16.50;9.70;;;;;;;15.11;92.10;98958.16;5053833;28;20016;-70
2023/05/17 06:06:11;;;;;;;20.58;11.63;;;;;;;15.25;92.46;98963.22;5068719;28;20034;-70
2023/05/17 06:08:36;;;;;;;20.20;10.88;;;;;;;15.39;88.97;98971.06;5068006;28;20032;-71
2023/05/17 06:11:05;;;;;;;30.58;12.18;;;;;;;15.57;88.80;98960.06;5064580;28;20431;-73
2023/05/17 06:13:30;;;;;;;21.75;12.18;;;;;;;15.60;89.00;98952.03;5059717;28;20128;-72
2023/05/17 06:15:58;;;;;;;28.95;12.68;;;;;;;15.74;88.81;98960.66;5051639;28;20035;-73
2023/05/17 06:18:23;;;;;;;18.90;12.13;;;;;;;15.80;87.69;98961.16;5058325;28;20024;-72
2023/05/17 06:20:49;;;;;;;19.15;12.88;;;;;;;15.48;88.33;98967.97;5067724;28;20483;-72
2023/05/17 06:23:15;;;;;;;18.08;12.25;;;;;;;15.15;92.06;98961.88;5065499;28;20024;-73
2023/05/17 06:25:41;;;;;;;25.17;13.07;;;;;;;14.93;93.86;98966.31;5060674;28;20546;-73
2023/05/17 06:28:08;;;;;;;18.65;11.63;;;;;;;15.25;93.42;98942.66;5057107;28;20057;-73
2023/05/17 06:30:34;;;;;;;23.00;14.23;;;;;;;15.41;92.28;98942.50;5060051;28;20442;-75
2023/05/17 06:33:00;;;;;;;24.40;12.85;;;;;;;15.12;92.23;98934.44;5067708;28;20039;-75
2023/05/17 06:35:25;;;;;;;23.48;14.82;;;;;;;14.84;93.94;98941.25;5063203;28;20021;-75
2023/05/17 06:37:50;;;;;;;22.35;14.23;;;;;;;14.92;95.29;98942.19;5059114;28;20045;-73
2023/05/17 06:40:16;;;;;;;25.92;14.15;;;;;;;14.88;93.68;98955.41;5068703;28;20396;-72
2023/05/17 06:42:41;;;;;;;19.00;14.32;;;;;;;14.90;95.95;98969.91;5072151;28;20029;-74
2023/05/17 06:45:07;;;;;;;26.63;15.77;;;;;;;15.09;96.35;98968.19;5063859;28;20059;-74
2023/05/17 06:47:33;;;;;;;21.35;13.70;;;;;;;14.73;94.83;98974.03;5059170;28;20063;-74
2023/05/17 06:49:58;;;;;;;28.30;14.73;;;;;;;15.04;95.48;98985.41;5055246;28;20029;-72
2023/05/17 06:52:24;;;;;;;22.20;14.70;;;;;;;15.12;95.69;98995.59;5065660;28;20032;-70
2023/05/17 06:54:49;;;;;;;27.05;14.48;;;;;;;15.13;94.62;98997.22;5066363;28;20086;-72
2023/05/17 06:57:15;;;;;;;24.20;14.10;;;;;;;15.25;93.22;99013.94;5064788;28;20039;-70
2023/05/17 06:59:40;;;;;;;24.40;14.38;;;;;;;15.21;94.20;99013.06;5065575;28;20029;-72
2023/05/17 07:02:06;;;;;;;28.27;13.98;;;;;;;15.15;94.52;99003.28;5062521;28;20106;-78
2023/05/17 07:04:32;;;;;;;25.73;17.42;;;;;;;14.93;94.95;98979.59;5059093;28;20107;-73
2023/05/17 07:06:57;;;;;;;21.00;14.73;;;;;;;14.65;95.76;98969.44;5063563;28;20032;-71
2023/05/17 07:09:22;;;;;;;28.08;16.08;;;;;;;14.69;97.72;98967.50;5057694;28;20036;-71
2023/05/17 07:11:48;;;;;;;31.33;16.48;;;;;;;14.62;99.24;98953.31;5061504;28;20040;-72
2023/05/17 07:14:13;;;;;;;34.40;20.13;;;;;;;14.78;99.35;98965.28;5060606;28;20032;-72
2023/05/17 07:16:39;;;;;;;32.38;25.60;;;;;;;14.81;98.42;98961.72;5067200;28;20067;-71
2023/05/17 07:19:04;;;;;;;29.40;15.70;;;;;;;14.53;100.00;98951.53;5067305;28;20056;-73
2023/05/17 07:21:31;;;;;;;23.73;15.43;;;;;;;14.55;100.00;98957.63;5067914;28;20119;-71
2023/05/17 07:23:57;;;;;;;61.33;18.50;;;;;;;14.82;100.00;98957.72;5067803;28;20028;-72
2023/05/17 07:26:23;;;;;;;23.33;14.63;;;;;;;14.97;100.00;98961.59;5062199;28;20033;-72
2023/05/17 07:28:49;;;;;;;33.95;15.80;;;;;;;14.99;100.00;98944.28;5050251;28;20025;-72
2023/05/17 07:31:14;;;;;;;25.60;16.33;;;;;;;14.91;100.00;98951.03;5054085;28;20021;-73
2023/05/17 07:33:40;;;;;;;27.23;16.10;;;;;;;14.92;100.00;98955.47;5069286;28;20582;-73
2023/05/17 07:36:06;;;;;;;28.30;15.48;;;;;;;14.80;100.00;98964.91;5073299;28;20035;-77
2023/05/17 07:38:34;;;;;;;27.40;16.80;;;;;;;14.97;100.00;98960.75;5071742;28;20475;-71
2023/05/17 07:41:00;;;;;;;38.60;16.77;;;;;;;15.18;100.00;98974.34;5071461;28;20463;-73
2023/05/17 07:43:25;;;;;;;33.08;17.48;;;;;;;15.28;100.00;98993.44;5073372;28;20032;-76
2023/05/17 07:45:51;;;;;;;29.15;16.55;;;;;;;15.18;100.00;98996.09;5071017;28;20029;-73
2023/05/17 07:48:16;;;;;;;28.48;17.92;;;;;;;15.24;100.00;98989.75;5060870;28;20083;-77
2023/05/17 07:50:43;;;;;;;35.15;17.25;;;;;;;15.29;100.00;98991.44;5065508;28;20021;-76
2023/05/17 07:53:08;;;;;;;24.25;14.82;;;;;;;15.31;100.00;98991.88;5074628;28;20056;-72
2023/05/17 07:55:34;;;;;;;30.65;16.08;;;;;;;15.30;100.00;98987.44;5067473;28;20020;-77
2023/05/17 07:57:59;;;;;;;33.67;19.08;;;;;;;15.19;100.00;98992.88;5070914;28;20369;-74
2023/05/17 08:00:25;;;;;;;36.22;17.95;;;;;;;15.32;100.00;98992.66;5074175;28;20020;-76
2023/05/17 08:02:50;;;;;;;31.38;17.25;;;;;;;15.42;100.00;98987.22;5072891;28;20390;-74
2023/05/17 08:05:16;;;;;;;28.23;18.17;;;;;;;15.46;100.00;98983.63;5073981;28;20426;-77
2023/05/17 08:07:42;;;;;;;38.75;23.83;;;;;;;15.55;100.00;98993.44;5065337;28;20024;-75
2023/05/17 08:10:08;;;;;;;49.25;30.90;;;;;;;15.55;100.00;98992.63;5074373;28;20452;-72
2023/05/17 08:12:33;;;;;;;34.95;17.73;;;;;;;15.51;100.00;98980.50;5073429;28;20375;-72
2023/05/17 08:14:58;;;;;;;34.05;16.77;;;;;;;15.53;100.00;98993.00;5072493;28;20113;-75
2023/05/17 08:17:24;;;;;;;49.22;30.15;;;;;;;15.55;100.00;98993.44;5073877;28;20035;-73
2023/05/17 08:19:50;;;;;;;33.42;17.88;;;;;;;15.60;100.00;98995.09;5068616;28;20568;-77
2023/05/17 08:22:15;;;;;;;41.20;22.95;;;;;;;15.64;100.00;98995.16;5064691;28;20021;-78
2023/05/17 08:24:43;;;;;;;52.08;18.50;;;;;;;15.64;100.00;98995.16;5070734;28;20032;-75
2023/05/17 08:27:09;;;;;;;27.38;16.67;;;;;;;15.58;100.00;98989.88;5070951;28;20453;-77
2023/05/17 08:29:35;;;;;;;28.25;16.88;;;;;;;15.66;100.00;98987.13;5063854;28;20050;-76
2023/05/17 08:32:00;;;;;;;39.00;16.83;;;;;;;15.65;100.00;98971.41;5073224;28;20071;-75
2023/05/17 08:34:26;;;;;;;35.92;17.42;;;;;;;15.58;100.00;98967.31;5072782;28;20507;-74
2023/05/17 08:36:52;;;;;;;33.90;20.27;;;;;;;15.72;100.00;98968.72;5058935;28;20474;-81
2023/05/17 08:39:19;;;;;;;38.92;21.75;;;;;;;15.76;100.00;98965.94;5068896;28;20023;-76
2023/05/17 08:41:46;;;;;;;26.25;18.70;;;;;;;15.80;100.00;98961.94;5072169;28;20096;-76
2023/05/17 08:44:13;;;;;;;30.98;16.30;;;;;;;15.43;100.00;98957.84;5069180;28;20511;-76
2023/05/17 08:46:40;;;;;;;27.30;16.30;;;;;;;15.41;100.00;98965.03;5071474;28;20413;-76
2023/05/17 08:49:07;;;;;;;27.60;18.15;;;;;;;15.52;100.00;98974.47;5071968;28;20033;-75
2023/05/17 08:51:34;;;;;;;27.45;16.33;;;;;;;15.54;100.00;98985.38;5070878;28;20083;-75
2023/05/17 08:54:05;;;;;;;27.13;17.02;;;;;;;15.53;100.00;98992.19;5066224;28;20477;-74
2023/05/17 08:56:34;;;;;;;31.55;17.67;;;;;;;15.35;100.00;99008.84;5069465;28;20028;-75
2023/05/17 08:59:01;;;;;;;33.10;19.42;;;;;;;15.29;100.00;99011.97;5066533;28;20032;-76
2023/05/17 09:01:28;;;;;;;24.10;16.67;;;;;;;15.11;100.00;99022.16;5070119;28;20032;-70
2023/05/17 09:03:54;;;;;;;27.48;18.90;;;;;;;14.92;100.00;99025.84;5073351;28;20403;-71
2023/05/17 09:06:21;;;;;;;31.80;20.55;;;;;;;14.74;100.00;99032.78;5069969;28;20030;-72
2023/05/17 09:08:51;;;;;;;29.98;21.17;;;;;;;14.68;100.00;99037.06;5071261;28;20023;-71
2023/05/17 09:11:31;;;;;;;32.10;21.80;;;;;;;14.70;100.00;99042.31;5071642;28;20020;-72
2023/05/17 09:14:04;;;;;;;29.73;20.73;;;;;;;14.64;100.00;99032.53;5072441;28;20213;-71
2023/05/17 09:16:32;;;;;;;35.38;23.27;;;;;;;14.80;100.00;99043.72;5072362;28;20108;-73
2023/05/17 09:18:58;;;;;;;78.00;55.17;;;;;;;14.75;100.00;99033.59;5067380;28;20077;-74
2023/05/17 09:21:25;;;;;;;42.17;24.95;;;;;;;14.86;100.00;99028.16;5070105;28;20028;-75
2023/05/17 09:23:52;;;;;;;39.05;24.63;;;;;;;14.91;100.00;99024.22;5069868;28;20051;-74
2023/05/17 09:26:20;;;;;;;41.72;27.25;;;;;;;15.00;100.00;99011.50;5070077;28;20036;-76
2023/05/17 09:28:47;;;;;;;39.10;27.50;;;;;;;15.17;100.00;99000.91;5067605;28;20039;-77
2023/05/17 09:31:15;;;;;;;42.20;25.55;;;;;;;15.10;100.00;98984.72;5067707;28;20548;-78
2023/05/17 09:33:47;;;;;;;30.55;22.55;;;;;;;15.00;100.00;98969.28;5067779;28;20033;-78
2023/05/17 09:36:22;;;;;;;35.67;23.63;;;;;;;15.09;100.00;98956.94;5070725;28;20036;-80
2023/05/17 09:39:00;;;;;;;33.55;23.02;;;;;;;15.00;100.00;98951.53;5068866;28;20017;-73
2023/05/17 09:41:39;;;;;;;53.33;26.35;;;;;;;14.94;100.00;98961.53;5066222;28;20490;-77
2023/05/17 09:44:09;;;;;;;38.45;23.92;;;;;;;15.12;100.00;98965.41;5068423;28;20059;-77
2023/05/17 09:46:37;;;;;;;45.15;25.55;;;;;;;15.22;100.00;98968.78;5067836;28;20032;-75
2023/05/17 09:49:03;;;;;;;37.90;24.40;;;;;;;15.27;100.00;98971.31;5067812;28;20032;-75
2023/05/17 09:51:32;;;;;;;38.67;23.85;;;;;;;15.16;100.00;98969.13;5062055;28;20059;-75
2023/05/17 09:53:58;;;;;;;37.00;23.27;;;;;;;15.12;100.00;98961.81;5059336;28;20529;-75
2023/05/17 09:56:27;;;;;;;43.60;32.10;;;;;;;14.80;100.00;98956.44;5068518;28;20027;-75
2023/05/17 09:58:52;;;;;;;82.38;40.28;;;;;;;14.49;100.00;98941.44;5058453;28;20126;-78
2023/05/17 10:01:18;;;;;;;52.70;33.75;;;;;;;14.13;100.00;98952.81;5061382;28;20064;-76
2023/05/17 10:03:44;;;;;;;68.00;43.40;;;;;;;13.76;100.00;98954.91;5067402;28;20029;-74
2023/05/17 10:06:11;;;;;;;81.40;51.38;;;;;;;14.09;100.00;98954.75;5064777;28;20032;-77
2023/05/17 10:08:37;;;;;;;72.05;43.05;;;;;;;14.38;100.00;98974.97;5053734;28;20020;-76
2023/05/17 10:11:10;;;;;;;57.05;32.00;;;;;;;14.54;100.00;98978.50;5071568;28;20024;-76
2023/05/17 10:13:48;;;;;;;36.22;26.00;;;;;;;14.71;100.00;98990.47;5068035;28;20518;-77
2023/05/17 10:16:14;;;;;;;34.33;24.17;;;;;;;14.65;100.00;98992.78;5071374;28;20028;-76
2023/05/17 10:18:40;;;;;;;35.53;23.75;;;;;;;14.55;100.00;98993.38;5057792;28;20035;-78
2023/05/17 10:21:07;;;;;;;45.42;25.05;;;;;;;14.51;100.00;98993.31;5064443;28;20469;-77
2023/05/17 10:23:33;;;;;;;34.15;22.92;;;;;;;14.44;100.00;98990.38;5069016;28;20062;-76
2023/05/17 10:25:59;;;;;;;49.35;28.52;;;;;;;14.41;100.00;98997.56;5069627;28;20028;-76
2023/05/17 10:28:26;;;;;;;47.22;31.67;;;;;;;14.45;100.00;98990.00;5068902;28;20475;-77
2023/05/17 10:30:53;;;;;;;62.53;39.53;;;;;;;14.24;100.00;98978.31;5070874;28;20082;-78
2023/05/17 10:33:20;;;;;;;66.45;40.90;;;;;;;14.48;100.00;98984.78;5070604;28;20104;-78
2023/05/17 10:35:46;;;;;;;59.97;38.78;;;;;;;14.77;100.00;98985.38;5062291;28;21416;-79
2023/05/17 10:38:12;;;;;;;49.35;31.88;;;;;;;14.83;100.00;98987.50;5062498;28;20051;-80
2023/05/17 10:40:39;;;;;;;43.88;26.13;;;;;;;14.67;100.00;98981.94;5063150;28;20463;-79
2023/05/17 10:43:07;;;;;;;37.08;25.30;;;;;;;14.73;100.00;98974.88;5056077;28;20039;-79
2023/05/17 10:45:33;;;;;;;39.38;24.88;;;;;;;14.84;100.00;98974.22;5057524;28;20115;-79
2023/05/17 10:48:00;;;;;;;36.50;23.08;;;;;;;14.95;100.00;98978.03;5062567;28;20416;-79
2023/05/17 10:50:26;;;;;;;33.13;21.60;;;;;;;14.70;100.00;98980.41;5053785;28;20397;-79
2023/05/17 10:52:55;;;;;;;36.92;23.17;;;;;;;14.81;100.00;98972.97;5050145;28;20040;-78
2023/05/17 10:55:23;;;;;;;34.15;24.17;;;;;;;14.89;100.00;98968.28;5053883;28;20060;-79
2023/05/17 10:58:15;;;;;;;32.33;21.20;;;;;;;14.71;100.00;98957.47;5054186;28;20025;-78
2023/05/17 11:00:41;;;;;;;33.03;21.02;;;;;;;14.91;100.00;98967.91;5051174;28;20029;-79
2023/05/17 11:03:21;;;;;;;33.30;21.15;;;;;;;14.88;100.00;98975.91;5058456;28;20021;-79
2023/05/17 11:06:13;;;;;;;34.88;20.40;;;;;;;14.83;100.00;98964.97;5065329;28;20024;-79
2023/05/17 11:09:02;;;;;;;46.80;31.58;;;;;;;14.31;100.00;98967.22;5048167;28;20025;-79
2023/05/17 11:11:28;;;;;;;65.13;49.92;;;;;;;14.60;100.00;98973.41;5049893;28;20113;-79
2023/05/17 11:13:56;;;;;;;67.90;45.42;;;;;;;14.90;100.00;98971.88;5049956;28;20119;-78
2023/05/17 11:16:33;;;;;;;109.25;84.13;;;;;;;14.98;100.00;98973.66;5054513;28;20032;-79